Time;durP1;ratioP1;P1;durP2;ratioP2;P2;SDS_P1;SDS_P2;PMS_P1;PMS_P2;Temp;Humidity;BMP_temperature;BMP_pressure;BME280_temperature;BME280_humidity;BME280_pressure;Samples;Min_cycle;Max_cycle;Signal;HPM_P1;HPM_P2
2022/07/17 00:01:55;;;;;;;1.60;0.90;;;18.10;47.20;;;;;;5060005;28;20123;-48
2022/07/17 00:04:24;;;;;;;2.72;1.00;;;18.00;47.40;;;;;;5055113;28;20051;-47
2022/07/17 00:06:56;;;;;;;1.08;0.80;;;18.00;47.40;;;;;;5058656;28;20028;-46
2022/07/17 00:09:30;;;;;;;4.57;1.30;;;18.00;48.50;;;;;;5048112;28;20063;-46
2022/07/17 00:11:59;;;;;;;2.28;1.50;;;17.90;48.20;;;;;;5048582;28;20451;-50
2022/07/17 00:14:28;;;;;;;1.80;1.05;;;17.90;47.70;;;;;;5045319;28;20802;-45
2022/07/17 00:16:57;;;;;;;1.55;0.95;;;17.80;47.70;;;;;;5046278;28;20045;-48
2022/07/17 00:19:30;;;;;;;1.58;1.17;;;17.80;47.80;;;;;;5061708;28;20440;-53
2022/07/17 00:21:59;;;;;;;2.35;1.27;;;17.80;47.80;;;;;;5068214;28;20052;-45
2022/07/17 00:24:29;;;;;;;1.33;1.23;;;17.70;48.00;;;;;;5053415;28;20067;-48
2022/07/17 00:26:57;;;;;;;2.20;1.13;;;17.70;48.30;;;;;;5057738;28;20051;-46
2022/07/17 00:29:24;;;;;;;2.03;0.90;;;17.70;48.10;;;;;;5068536;28;20059;-46
2022/07/17 00:31:50;;;;;;;3.45;1.40;;;17.60;48.10;;;;;;5068201;28;20181;-50
2022/07/17 00:34:19;;;;;;;1.15;1.00;;;17.60;48.20;;;;;;5051673;28;20120;-45
2022/07/17 00:36:47;;;;;;;1.80;0.93;;;17.60;48.30;;;;;;5056258;28;20040;-48
2022/07/17 00:39:14;;;;;;;1.40;1.13;;;17.50;48.40;;;;;;5059993;28;20059;-46
2022/07/17 00:41:44;;;;;;;1.25;0.90;;;17.50;48.40;;;;;;5068294;28;20040;-47
2022/07/17 00:44:17;;;;;;;4.03;1.13;;;17.40;48.70;;;;;;5054797;28;20044;-46
2022/07/17 00:46:44;;;;;;;2.70;1.10;;;17.40;48.30;;;;;;5055686;28;20049;-46
2022/07/17 00:49:11;;;;;;;2.70;1.27;;;17.40;48.40;;;;;;5067133;28;20515;-45
2022/07/17 00:51:38;;;;;;;2.03;1.15;;;17.30;48.50;;;;;;5064456;28;20041;-46
2022/07/17 00:54:06;;;;;;;2.35;1.48;;;17.30;48.60;;;;;;5048241;28;20064;-45
2022/07/17 00:56:37;;;;;;;1.98;1.10;;;17.20;48.70;;;;;;5060686;28;20041;-49
2022/07/17 00:59:06;;;;;;;3.28;1.30;;;17.20;48.90;;;;;;5069043;28;20059;-48
2022/07/17 01:01:35;;;;;;;2.88;1.00;;;17.20;48.90;;;;;;5054750;28;20053;-46
2022/07/17 01:04:02;;;;;;;2.08;0.90;;;17.10;49.10;;;;;;5051666;28;20529;-49
2022/07/17 01:06:30;;;;;;;1.95;0.90;;;17.10;48.90;;;;;;5059453;28;20044;-50
2022/07/17 01:09:03;;;;;;;2.20;1.05;;;17.10;49.10;;;;;;5053555;28;20060;-49
2022/07/17 01:11:31;;;;;;;1.85;1.00;;;17.10;48.90;;;;;;5048828;28;20417;-46
2022/07/17 01:14:01;;;;;;;1.90;1.13;;;17.00;49.00;;;;;;5050788;28;20048;-48
2022/07/17 01:16:28;;;;;;;2.15;1.10;;;17.00;49.10;;;;;;5054937;28;20037;-46
2022/07/17 01:19:02;;;;;;;2.15;1.08;;;16.90;49.00;;;;;;5041405;28;20116;-50
2022/07/17 01:21:46;;;;;;;1.77;1.02;;;16.90;49.10;;;;;;5034905;28;20048;-48
2022/07/17 01:24:13;;;;;;;1.60;0.95;;;16.90;49.80;;;;;;5050699;28;20038;-46
2022/07/17 01:26:42;;;;;;;1.75;1.00;;;16.80;49.00;;;;;;5042807;28;20042;-47
2022/07/17 01:29:11;;;;;;;2.17;1.00;;;16.80;49.20;;;;;;5042481;28;20111;-44
2022/07/17 01:31:43;;;;;;;3.53;1.38;;;16.80;49.40;;;;;;5054724;28;20060;-47
2022/07/17 01:34:14;;;;;;;2.00;1.13;;;16.70;49.20;;;;;;5063738;28;20044;-48
2022/07/17 01:36:41;;;;;;;2.67;1.13;;;16.70;49.40;;;;;;5070358;28;20052;-47
2022/07/17 01:39:09;;;;;;;3.00;0.90;;;16.60;49.20;;;;;;5058660;28;20046;-48
2022/07/17 01:41:36;;;;;;;3.22;0.90;;;16.60;49.30;;;;;;5064022;28;20083;-49
2022/07/17 01:44:06;;;;;;;1.25;1.00;;;16.60;49.50;;;;;;5071206;28;20098;-45
2022/07/17 01:46:33;;;;;;;1.08;0.98;;;16.50;49.60;;;;;;5070716;28;20509;-49
2022/07/17 01:49:02;;;;;;;1.05;1.05;;;16.50;49.60;;;;;;5056434;28;20072;-48
2022/07/17 01:51:30;;;;;;;1.55;1.00;;;16.50;49.60;;;;;;5046268;28;20694;-50
2022/07/17 01:53:59;;;;;;;1.85;1.00;;;16.40;49.70;;;;;;5041571;28;20053;-48
2022/07/17 01:56:25;;;;;;;1.20;0.93;;;16.40;49.70;;;;;;5030718;28;20049;-46
2022/07/17 01:58:52;;;;;;;1.80;1.00;;;16.40;49.90;;;;;;5037315;28;20045;-47
2022/07/17 02:01:21;;;;;;;2.03;1.02;;;16.30;50.00;;;;;;5045911;28;20447;-47
2022/07/17 02:03:48;;;;;;;1.15;1.02;;;16.30;50.00;;;;;;5052398;28;20045;-48
2022/07/17 02:06:15;;;;;;;3.05;1.48;;;16.30;50.00;;;;;;5039564;28;20042;-46
2022/07/17 02:08:44;;;;;;;2.33;0.90;;;16.20;50.70;;;;;;5043993;28;20041;-44
2022/07/17 02:11:10;;;;;;;2.50;0.90;;;16.20;50.40;;;;;;5046084;28;20684;-46
2022/07/17 02:13:41;;;;;;;2.15;1.20;;;16.20;50.10;;;;;;5041652;28;20061;-47
2022/07/17 02:16:08;;;;;;;1.80;1.27;;;16.20;50.30;;;;;;5042935;28;20489;-49
2022/07/17 02:18:37;;;;;;;1.35;0.95;;;16.10;50.20;;;;;;5050723;28;20095;-48
2022/07/17 02:21:09;;;;;;;2.35;1.13;;;16.10;50.30;;;;;;5047316;28;20037;-50
2022/07/17 02:23:38;;;;;;;1.20;1.10;;;16.10;50.20;;;;;;5043829;28;20056;-45
2022/07/17 02:26:05;;;;;;;3.25;1.50;;;16.00;50.10;;;;;;5043920;28;20064;-47
2022/07/17 02:28:32;;;;;;;2.97;1.23;;;16.00;50.30;;;;;;5044337;28;20040;-46
2022/07/17 02:31:01;;;;;;;1.20;1.10;;;16.00;50.40;;;;;;5058334;28;20039;-49
2022/07/17 02:33:29;;;;;;;0.85;0.80;;;15.90;50.30;;;;;;5051612;28;20044;-49
2022/07/17 02:35:56;;;;;;;2.47;0.80;;;15.90;50.30;;;;;;5045724;28;20056;-50
2022/07/17 02:38:28;;;;;;;2.13;0.98;;;15.90;50.40;;;;;;5063652;28;20052;-49
2022/07/17 02:40:57;;;;;;;1.27;0.90;;;15.90;50.40;;;;;;5067732;28;20044;-49
2022/07/17 02:43:26;;;;;;;3.80;0.93;;;15.80;50.70;;;;;;5056172;28;20045;-49
2022/07/17 02:45:53;;;;;;;1.65;1.10;;;15.80;50.70;;;;;;5040667;28;20107;-49
2022/07/17 02:48:22;;;;;;;2.08;1.00;;;15.80;50.70;;;;;;5050093;28;20033;-46
2022/07/17 02:50:50;;;;;;;0.70;0.70;;;15.70;50.90;;;;;;5039428;28;20045;-50
2022/07/17 02:53:17;;;;;;;2.78;1.08;;;15.70;50.60;;;;;;5036421;28;20040;-48
2022/07/17 02:55:44;;;;;;;1.33;0.85;;;15.60;50.50;;;;;;5044146;28;20060;-50
2022/07/17 02:58:13;;;;;;;2.28;0.90;;;15.60;50.70;;;;;;5064233;28;20493;-47
2022/07/17 03:00:40;;;;;;;1.23;1.15;;;15.60;50.70;;;;;;5064804;28;20492;-49
2022/07/17 03:03:07;;;;;;;1.25;1.10;;;15.60;50.70;;;;;;5069972;28;20098;-47
2022/07/17 03:05:34;;;;;;;2.15;1.08;;;15.60;50.70;;;;;;5054862;28;20044;-50
2022/07/17 03:08:08;;;;;;;0.73;0.68;;;15.50;50.80;;;;;;5050148;28;20192;-50
2022/07/17 03:10:37;;;;;;;1.30;1.13;;;15.50;50.90;;;;;;5045838;28;20048;-44
2022/07/17 03:13:04;;;;;;;2.28;1.00;;;15.50;50.90;;;;;;5051225;28;20044;-47
2022/07/17 03:15:34;;;;;;;0.80;0.80;;;15.40;50.90;;;;;;5057050;28;20702;-49
2022/07/17 03:18:00;;;;;;;1.58;0.88;;;15.40;51.10;;;;;;5044690;28;20116;-50
2022/07/17 03:20:30;;;;;;;1.95;1.08;;;15.50;51.20;;;;;;5046459;28;20041;-45
2022/07/17 03:23:01;;;;;;;1.90;0.85;;;15.40;51.30;;;;;;5048412;28;20563;-45
2022/07/17 03:25:28;;;;;;;3.63;1.20;;;15.40;51.20;;;;;;5053755;28;20033;-48
2022/07/17 03:27:55;;;;;;;3.45;1.38;;;15.30;51.30;;;;;;5056939;28;20451;-49
2022/07/17 03:30:27;;;;;;;1.23;1.02;;;15.30;51.90;;;;;;5049640;28;20477;-49
2022/07/17 03:32:55;;;;;;;1.45;1.00;;;15.30;51.30;;;;;;5051049;28;20048;-46
2022/07/17 03:35:24;;;;;;;2.30;1.30;;;15.20;51.20;;;;;;5061444;28;20037;-46
2022/07/17 03:37:51;;;;;;;1.02;1.00;;;15.20;51.40;;;;;;5067099;28;20090;-45
2022/07/17 03:40:18;;;;;;;1.23;0.90;;;15.20;51.60;;;;;;5063810;28;20040;-49
2022/07/17 03:42:48;;;;;;;1.73;1.02;;;15.20;51.60;;;;;;5045079;28;20437;-47
2022/07/17 03:45:16;;;;;;;2.05;0.95;;;15.10;51.80;;;;;;5059705;28;20702;-46
2022/07/17 03:47:45;;;;;;;1.90;0.88;;;15.10;51.70;;;;;;5065496;28;20439;-49
2022/07/17 03:50:15;;;;;;;3.08;1.48;;;15.10;51.80;;;;;;5071163;28;20157;-47
2022/07/17 03:52:41;;;;;;;1.35;1.13;;;15.10;52.10;;;;;;5056876;28;20389;-46
2022/07/17 03:55:09;;;;;;;1.20;0.82;;;15.10;52.10;;;;;;5060386;28;20110;-45
2022/07/17 03:57:35;;;;;;;1.73;1.42;;;15.10;52.30;;;;;;5070301;28;20082;-46
2022/07/17 04:00:03;;;;;;;2.63;1.27;;;15.10;52.40;;;;;;5059370;28;20446;-48
2022/07/17 04:02:37;;;;;;;3.65;1.13;;;15.10;52.40;;;;;;5059091;28;20094;-46
2022/07/17 04:05:09;;;;;;;1.88;1.17;;;15.10;52.40;;;;;;5052068;28;20044;-45
2022/07/17 04:07:37;;;;;;;2.70;1.13;;;15.10;52.50;;;;;;5058678;28;20037;-46
2022/07/17 04:10:05;;;;;;;1.45;0.90;;;15.10;52.70;;;;;;5050765;28;20564;-46
2022/07/17 04:12:32;;;;;;;4.25;1.60;;;15.10;52.70;;;;;;5050340;28;20091;-47
2022/07/17 04:15:02;;;;;;;1.98;1.08;;;15.10;52.80;;;;;;5056188;28;20044;-49
2022/07/17 04:17:29;;;;;;;4.40;1.30;;;15.10;52.80;;;;;;5058443;28;20040;-49
2022/07/17 04:19:58;;;;;;;3.17;1.35;;;15.10;53.00;;;;;;5049000;28;20072;-46
2022/07/17 04:22:25;;;;;;;3.00;1.55;;;15.10;53.10;;;;;;5062455;28;20452;-45
2022/07/17 04:24:53;;;;;;;2.97;1.15;;;15.10;53.20;;;;;;5066631;28;20616;-49
2022/07/17 04:27:22;;;;;;;2.83;1.30;;;15.10;53.20;;;;;;5062295;28;20390;-49
2022/07/17 04:29:50;;;;;;;3.47;1.80;;;15.10;53.30;;;;;;5065282;28;20037;-50
2022/07/17 04:32:17;;;;;;;3.75;1.33;;;15.20;53.50;;;;;;5065672;28;20102;-49
2022/07/17 04:34:51;;;;;;;1.77;1.15;;;15.20;53.60;;;;;;5074314;28;20052;-49
2022/07/17 04:37:18;;;;;;;2.08;1.20;;;15.20;53.90;;;;;;5054147;28;20091;-48
2022/07/17 04:39:47;;;;;;;1.83;1.25;;;15.20;53.90;;;;;;5056302;28;20040;-48
2022/07/17 04:42:16;;;;;;;2.45;1.20;;;15.20;54.00;;;;;;5064840;28;20098;-49
2022/07/17 04:44:45;;;;;;;2.42;1.20;;;15.20;54.10;;;;;;5073527;28;20060;-45
2022/07/17 04:47:11;;;;;;;1.70;1.10;;;15.20;54.30;;;;;;5066074;28;20038;-46
2022/07/17 04:49:38;;;;;;;4.50;1.35;;;15.30;54.50;;;;;;5066403;28;20041;-50
2022/07/17 04:52:06;;;;;;;2.88;1.63;;;15.30;54.60;;;;;;5063721;28;20497;-46
2022/07/17 04:54:33;;;;;;;1.88;1.48;;;15.30;54.80;;;;;;5073887;28;20094;-49
2022/07/17 04:57:02;;;;;;;1.85;1.30;;;15.40;55.00;;;;;;5056433;28;20041;-49
2022/07/17 04:59:37;;;;;;;1.73;1.40;;;15.40;55.10;;;;;;5060747;28;20049;-46
2022/07/17 05:02:04;;;;;;;1.55;1.45;;;15.50;55.30;;;;;;5064393;28;20119;-48
2022/07/17 05:04:33;;;;;;;2.80;1.52;;;15.50;55.40;;;;;;5060165;28;20083;-48
2022/07/17 05:07:00;;;;;;;2.35;1.33;;;15.50;55.60;;;;;;5063874;28;20033;-46
2022/07/17 05:09:26;;;;;;;4.15;1.70;;;15.60;55.80;;;;;;5053936;28;20507;-50
2022/07/17 05:11:53;;;;;;;2.08;1.52;;;15.70;56.00;;;;;;5052692;28;20056;-47
2022/07/17 05:14:20;;;;;;;2.50;1.30;;;15.70;56.10;;;;;;5058518;28;20048;-45
2022/07/17 05:16:49;;;;;;;3.47;1.63;;;15.80;56.30;;;;;;5054923;28;20056;-49
2022/07/17 05:19:23;;;;;;;1.88;1.77;;;15.80;56.50;;;;;;5062260;28;20036;-50
2022/07/17 05:21:54;;;;;;;9.68;1.65;;;15.90;56.70;;;;;;5052650;28;20048;-46
2022/07/17 05:24:24;;;;;;;2.13;1.73;;;16.00;57.10;;;;;;5050835;28;20048;-49
2022/07/17 05:26:54;;;;;;;3.88;2.00;;;16.00;56.90;;;;;;5060046;28;20512;-47
2022/07/17 05:29:21;;;;;;;2.45;1.85;;;16.10;57.50;;;;;;5050256;28;20044;-46
2022/07/17 05:31:48;;;;;;;4.70;2.45;;;16.20;57.10;;;;;;5040670;28;20045;-46
2022/07/17 05:34:17;;;;;;;4.65;2.67;;;16.20;57.20;;;;;;5045991;28;20094;-50
2022/07/17 05:36:43;;;;;;;4.63;2.35;;;16.30;57.20;;;;;;5051635;28;20396;-49
2022/07/17 05:39:13;;;;;;;3.50;2.35;;;16.40;57.30;;;;;;5046207;28;20493;-48
2022/07/17 05:41:42;;;;;;;3.15;2.05;;;16.50;57.20;;;;;;5040764;28;20041;-47
2022/07/17 05:44:08;;;;;;;3.40;2.40;;;16.60;57.40;;;;;;5049208;28;20470;-50
2022/07/17 05:46:35;;;;;;;4.15;1.83;;;16.70;57.60;;;;;;5063669;28;20045;-47
2022/07/17 05:49:02;;;;;;;3.25;2.22;;;16.80;57.70;;;;;;5071086;28;20106;-44
2022/07/17 05:51:29;;;;;;;2.35;2.10;;;16.90;57.80;;;;;;5071072;28;20455;-47
2022/07/17 05:53:56;;;;;;;3.88;2.25;;;16.90;57.60;;;;;;5050045;28;20048;-48
2022/07/17 05:56:25;;;;;;;3.65;2.15;;;17.00;57.50;;;;;;5062645;28;20041;-45
2022/07/17 05:58:54;;;;;;;5.80;2.47;;;17.10;57.20;;;;;;5069767;28;20607;-47
2022/07/17 06:01:21;;;;;;;4.10;2.67;;;17.20;57.50;;;;;;5071446;28;20501;-46
2022/07/17 06:03:50;;;;;;;4.78;2.40;;;17.20;57.00;;;;;;5049064;28;20459;-46
2022/07/17 06:06:17;;;;;;;5.22;2.83;;;17.30;57.20;;;;;;5058886;28;20450;-46
2022/07/17 06:08:43;;;;;;;3.55;2.45;;;17.40;57.20;;;;;;5057902;28;20098;-46
2022/07/17 06:11:10;;;;;;;5.50;2.83;;;17.50;58.00;;;;;;5050148;28;20040;-46
2022/07/17 06:13:42;;;;;;;3.55;2.05;;;17.60;57.30;;;;;;5050544;28;20048;-44
2022/07/17 06:16:09;;;;;;;5.25;2.35;;;17.70;57.10;;;;;;5061985;28;20386;-45
2022/07/17 06:18:36;;;;;;;3.05;2.33;;;17.70;57.10;;;;;;5073130;28;20142;-47
2022/07/17 06:21:03;;;;;;;4.25;2.10;;;17.70;56.80;;;;;;5056132;28;20048;-50
2022/07/17 06:23:31;;;;;;;4.00;2.30;;;17.80;57.10;;;;;;5060815;28;20075;-49
2022/07/17 06:25:58;;;;;;;5.30;2.20;;;17.90;56.40;;;;;;5068724;28;20638;-50
2022/07/17 06:28:31;;;;;;;2.63;2.40;;;18.00;56.20;;;;;;5066602;28;20037;-48
2022/07/17 06:31:00;;;;;;;3.03;2.42;;;18.00;56.50;;;;;;5043731;28;20041;-49
2022/07/17 06:33:27;;;;;;;4.15;2.35;;;18.10;56.00;;;;;;5066532;28;20072;-48
2022/07/17 06:35:54;;;;;;;4.38;2.00;;;18.20;55.90;;;;;;5067811;28;20051;-44
2022/07/17 06:38:23;;;;;;;6.72;2.10;;;18.20;55.50;;;;;;5068967;28;20051;-48
2022/07/17 06:40:52;;;;;;;4.53;1.92;;;18.30;55.20;;;;;;5055864;28;20080;-46
2022/07/17 06:43:21;;;;;;;8.77;2.60;;;18.40;55.70;;;;;;5063534;28;20036;-49
2022/07/17 06:45:48;;;;;;;4.18;1.92;;;18.40;55.20;;;;;;5070715;28;20052;-47
2022/07/17 06:48:15;;;;;;;2.50;1.70;;;18.50;55.00;;;;;;5065374;28;20052;-49
2022/07/17 06:50:46;;;;;;;4.28;2.40;;;18.60;55.10;;;;;;5050668;28;20381;-49
2022/07/17 06:53:19;;;;;;;3.70;3.17;;;18.70;54.90;;;;;;5062396;28;20124;-49
2022/07/17 06:55:45;;;;;;;4.77;2.03;;;18.70;54.70;;;;;;5070588;28;20045;-49
2022/07/17 06:58:13;;;;;;;4.25;2.20;;;18.80;54.50;;;;;;5056146;28;20327;-49
2022/07/17 07:00:40;;;;;;;3.72;2.40;;;18.90;54.50;;;;;;5062808;28;20471;-45
2022/07/17 07:03:09;;;;;;;3.78;2.42;;;18.90;54.40;;;;;;5070011;28;20114;-46
2022/07/17 07:05:35;;;;;;;6.90;2.75;;;19.00;54.20;;;;;;5057009;28;20033;-47
2022/07/17 07:08:07;;;;;;;4.32;1.95;;;19.00;54.00;;;;;;5056078;28;20041;-46
2022/07/17 07:10:37;;;;;;;3.97;1.90;;;19.00;53.80;;;;;;5060600;28;20520;-44
2022/07/17 07:13:05;;;;;;;4.05;1.67;;;19.10;53.70;;;;;;5063264;28;20420;-46
2022/07/17 07:15:31;;;;;;;3.10;1.90;;;19.20;53.70;;;;;;5070780;28;20559;-46
2022/07/17 07:18:00;;;;;;;4.63;2.13;;;19.30;53.20;;;;;;5056022;28;20112;-45
2022/07/17 07:20:28;;;;;;;3.83;1.92;;;19.30;53.00;;;;;;5065373;28;20059;-47
2022/07/17 07:22:55;;;;;;;6.78;2.13;;;19.40;53.00;;;;;;5067638;28;20056;-46
2022/07/17 07:25:27;;;;;;;3.78;2.10;;;19.40;52.60;;;;;;5070444;28;20459;-47
2022/07/17 07:27:54;;;;;;;3.05;1.80;;;19.50;52.60;;;;;;5048868;28;20038;-45
2022/07/17 07:30:21;;;;;;;3.55;1.60;;;19.60;52.50;;;;;;5059508;28;20029;-44
2022/07/17 07:32:51;;;;;;;2.42;1.70;;;19.70;52.50;;;;;;5066497;28;20090;-46
2022/07/17 07:35:20;;;;;;;4.03;1.70;;;19.60;52.70;;;;;;5057575;28;20085;-46
2022/07/17 07:37:46;;;;;;;3.90;1.60;;;19.70;52.50;;;;;;5061703;28;20558;-50
2022/07/17 07:40:18;;;;;;;1.58;1.30;;;19.80;52.40;;;;;;5070403;28;20044;-46
2022/07/17 07:42:47;;;;;;;2.13;1.70;;;19.90;52.30;;;;;;5063396;28;20088;-46
2022/07/17 07:45:14;;;;;;;3.35;1.58;;;19.90;51.70;;;;;;5053535;28;20045;-46
2022/07/17 07:47:47;;;;;;;1.40;1.30;;;20.00;51.60;;;;;;5052931;28;20033;-47
2022/07/17 07:50:15;;;;;;;2.10;1.35;;;20.10;51.80;;;;;;5044783;28;20041;-46
2022/07/17 07:52:42;;;;;;;3.60;1.45;;;20.20;51.50;;;;;;5043037;28;20057;-45
2022/07/17 07:55:12;;;;;;;3.40;1.80;;;20.20;51.10;;;;;;5054890;28;20041;-47
2022/07/17 07:58:00;;;;;;;2.78;1.40;;;20.30;51.10;;;;;;5056327;28;20238;-49
2022/07/17 08:00:27;;;;;;;3.25;1.13;;;20.40;50.30;;;;;;5030342;28;20051;-47
2022/07/17 08:02:56;;;;;;;3.53;1.23;;;20.50;49.90;;;;;;5044602;28;20045;-51
2022/07/17 08:05:24;;;;;;;2.15;1.20;;;20.60;49.70;;;;;;5050113;28;20115;-48
2022/07/17 08:07:54;;;;;;;2.63;1.02;;;20.70;49.50;;;;;;5058179;28;20524;-47
2022/07/17 08:10:23;;;;;;;3.08;1.10;;;20.80;49.80;;;;;;5029067;28;20092;-47
2022/07/17 08:12:57;;;;;;;2.67;1.25;;;20.90;49.00;;;;;;5031633;28;20037;-51
2022/07/17 08:15:23;;;;;;;2.72;0.93;;;21.00;48.80;;;;;;5059708;28;20578;-49
2022/07/17 08:17:52;;;;;;;3.10;1.20;;;21.10;48.70;;;;;;5054156;28;20095;-48
2022/07/17 08:20:22;;;;;;;5.03;1.30;;;21.10;48.70;;;;;;5048798;28;20044;-51
2022/07/17 08:22:49;;;;;;;2.20;1.00;;;21.20;48.00;;;;;;5044853;28;20758;-48
2022/07/17 08:25:32;;;;;;;3.45;0.93;;;21.30;47.70;;;;;;5056746;28;20507;-51
2022/07/17 08:28:02;;;;;;;2.08;0.80;;;21.40;47.90;;;;;;5060577;28;20118;-50
2022/07/17 08:30:34;;;;;;;2.60;1.33;;;21.50;47.20;;;;;;5069730;28;20037;-45
2022/07/17 08:33:03;;;;;;;4.57;0.82;;;21.50;47.10;;;;;;5035004;28;20059;-50
2022/07/17 08:35:30;;;;;;;3.63;1.23;;;21.60;46.80;;;;;;5049998;28;20029;-48
2022/07/17 08:37:56;;;;;;;3.90;0.93;;;21.70;46.70;;;;;;5046440;28;20103;-51
2022/07/17 08:40:32;;;;;;;4.95;2.10;;;21.70;46.40;;;;;;5049954;28;20451;-47
2022/07/17 08:43:04;;;;;;;4.55;1.27;;;21.80;46.20;;;;;;5043658;28;20087;-48
2022/07/17 08:45:31;;;;;;;5.10;2.03;;;21.80;46.00;;;;;;5042402;28;20044;-48
2022/07/17 08:47:58;;;;;;;2.22;0.95;;;21.80;45.70;;;;;;5063493;28;20044;-50
2022/07/17 08:50:33;;;;;;;1.33;0.90;;;21.90;45.80;;;;;;5064208;28;20455;-48
2022/07/17 08:53:01;;;;;;;1.70;1.10;;;21.90;45.90;;;;;;5049359;28;20509;-50
2022/07/17 08:55:29;;;;;;;2.30;0.88;;;22.00;45.60;;;;;;5057994;28;20433;-47
2022/07/17 08:57:56;;;;;;;3.05;1.00;;;22.00;45.90;;;;;;5043626;28;20514;-48
2022/07/17 09:00:26;;;;;;;2.00;0.90;;;22.10;45.80;;;;;;5048081;28;20037;-50
2022/07/17 09:03:03;;;;;;;3.20;0.82;;;22.10;45.30;;;;;;5044045;28;20506;-48
2022/07/17 09:05:34;;;;;;;2.50;1.67;;;22.10;45.50;;;;;;5041835;28;20441;-49
2022/07/17 09:08:02;;;;;;;3.17;0.77;;;22.20;45.30;;;;;;5049163;28;20103;-50
2022/07/17 09:10:43;;;;;;;5.15;0.85;;;22.30;45.00;;;;;;5048031;28;20094;-50
2022/07/17 09:13:29;;;;;;;3.15;0.80;;;22.40;44.60;;;;;;5061776;28;20408;-50
2022/07/17 09:16:08;;;;;;;3.83;1.15;;;22.40;44.30;;;;;;5046580;28;20071;-49
2022/07/17 09:18:45;;;;;;;4.40;1.20;;;22.40;44.40;;;;;;5033297;28;20049;-51
2022/07/17 09:21:19;;;;;;;3.33;1.30;;;22.40;43.90;;;;;;5055641;28;20048;-49
2022/07/17 09:24:06;;;;;;;2.28;0.80;;;22.50;43.50;;;;;;5064380;28;20649;-46
2022/07/17 09:26:35;;;;;;;3.20;1.10;;;22.50;44.20;;;;;;5072047;28;20412;-51
2022/07/17 09:29:03;;;;;;;2.42;1.23;;;22.60;44.10;;;;;;5061810;28;20040;-50
2022/07/17 09:31:32;;;;;;;3.15;1.05;;;22.60;44.10;;;;;;5056357;28;20037;-50
2022/07/17 09:33:59;;;;;;;2.58;1.05;;;22.70;44.20;;;;;;5064376;28;20040;-49
2022/07/17 09:36:26;;;;;;;2.55;1.60;;;22.80;44.50;;;;;;5072763;28;20040;-48
2022/07/17 09:38:56;;;;;;;4.00;1.88;;;22.80;44.60;;;;;;5056477;28;20078;-49
2022/07/17 09:41:24;;;;;;;3.60;1.42;;;22.90;44.70;;;;;;5057250;28;20041;-49
2022/07/17 09:43:54;;;;;;;4.05;1.48;;;22.90;43.90;;;;;;5069290;28;20102;-52
2022/07/17 09:46:30;;;;;;;2.78;0.93;;;23.00;44.10;;;;;;5058258;28;20033;-50
2022/07/17 09:49:02;;;;;;;1.90;1.17;;;23.10;43.60;;;;;;5062571;28;20075;-51
2022/07/17 09:51:33;;;;;;;2.45;1.20;;;23.10;43.70;;;;;;5051879;28;20045;-50
2022/07/17 09:54:03;;;;;;;1.95;1.10;;;23.20;43.70;;;;;;5050951;28;20465;-51
2022/07/17 09:56:34;;;;;;;;;;;23.20;43.50;;;;;;5045556;28;20041;-51
2022/07/17 09:59:13;;;;;;;1.73;0.95;;;23.30;43.60;;;;;;5052607;28;19970;-47
2022/07/17 10:01:41;;;;;;;2.20;0.90;;;23.40;44.20;;;;;;5055589;28;20631;-49
2022/07/17 10:04:10;;;;;;;2.55;0.80;;;23.40;43.60;;;;;;5052069;28;20051;-48
2022/07/17 10:06:38;;;;;;;3.47;1.27;;;23.50;44.00;;;;;;5045382;28;20113;-47
2022/07/17 10:09:05;;;;;;;5.78;1.77;;;23.50;43.70;;;;;;5058829;28;20460;-48
2022/07/17 10:11:36;;;;;;;2.35;1.42;;;23.50;43.40;;;;;;5064446;28;20473;-51
2022/07/17 10:14:13;;;;;;;2.40;1.30;;;23.60;43.60;;;;;;5063923;28;20448;-49
2022/07/17 10:16:40;;;;;;;3.30;1.33;;;23.70;43.30;;;;;;5048716;28;20044;-50
2022/07/17 10:19:24;;;;;;;3.28;1.42;;;23.80;43.10;;;;;;5062495;28;20503;-51
2022/07/17 10:21:59;;;;;;;2.88;1.02;;;23.80;42.60;;;;;;5070625;28;20423;-47
2022/07/17 10:24:30;;;;;;;3.70;1.20;;;23.80;42.90;;;;;;5066963;28;20041;-47
2022/07/17 10:26:57;;;;;;;4.50;1.33;;;23.90;43.80;;;;;;5051845;28;20067;-51
2022/07/17 10:29:34;;;;;;;2.25;1.30;;;24.00;42.80;;;;;;5064065;28;20039;-51
2022/07/17 10:32:24;;;;;;;2.90;0.98;;;24.00;42.50;;;;;;5055957;28;20041;-51
2022/07/17 10:35:00;;;;;;;2.47;1.02;;;24.10;42.30;;;;;;5044335;28;20580;-47
2022/07/17 10:37:40;;;;;;;3.38;1.08;;;24.20;41.60;;;;;;5059112;28;20052;-48
2022/07/17 10:40:41;;;;;;;2.75;1.52;;;24.20;42.10;;;;;;5069944;28;20599;-51
2022/07/17 10:43:09;;;;;;;4.03;1.05;;;24.30;42.00;;;;;;5037047;28;20061;-49
2022/07/17 10:45:44;;;;;;;2.83;1.23;;;24.30;41.00;;;;;;5057885;28;20041;-47
2022/07/17 10:48:29;;;;;;;3.15;1.27;;;24.40;41.50;;;;;;5051351;28;20075;-48
2022/07/17 10:50:56;;;;;;;2.45;1.30;;;24.50;41.00;;;;;;5045322;28;20833;-51
2022/07/17 10:53:29;;;;;;;2.72;1.08;;;24.50;40.70;;;;;;5047593;28;20546;-49
2022/07/17 10:56:07;;;;;;;2.40;1.15;;;24.60;40.30;;;;;;5049902;28;20045;-50
2022/07/17 10:58:37;;;;;;;3.10;0.88;;;24.60;40.10;;;;;;5063656;28;20043;-51
2022/07/17 11:01:10;;;;;;;1.70;1.30;;;24.70;40.10;;;;;;5063570;28;20033;-50
2022/07/17 11:03:40;;;;;;;2.15;1.33;;;24.70;39.60;;;;;;5060868;28;20037;-49
2022/07/17 11:06:17;;;;;;;3.25;1.40;;;24.70;38.80;;;;;;5062871;28;20037;-50
2022/07/17 11:08:46;;;;;;;2.25;1.00;;;24.90;38.70;;;;;;5057265;28;20095;-47
2022/07/17 11:11:14;;;;;;;3.72;1.30;;;24.90;38.60;;;;;;5047070;28;20049;-50
2022/07/17 11:13:51;;;;;;;3.35;1.45;;;24.90;38.90;;;;;;5049281;28;20043;-47
2022/07/17 11:16:29;;;;;;;3.13;1.08;;;25.00;39.30;;;;;;5058158;28;20098;-49
2022/07/17 11:18:58;;;;;;;3.10;1.02;;;25.10;38.60;;;;;;5070186;28;20459;-48
2022/07/17 11:21:25;;;;;;;1.63;0.80;;;25.10;38.50;;;;;;5052741;28;20037;-47
2022/07/17 11:23:56;;;;;;;3.47;1.10;;;25.30;38.90;;;;;;5059269;28;20044;-52
2022/07/17 11:26:23;;;;;;;2.07;1.20;;;25.30;38.50;;;;;;5031482;28;20052;-48
2022/07/17 11:28:52;;;;;;;1.85;1.30;;;25.40;38.30;;;;;;5031298;28;20049;-52
2022/07/17 11:31:28;;;;;;;1.77;0.88;;;25.40;38.30;;;;;;5045677;28;20056;-51
2022/07/17 11:33:58;;;;;;;3.30;1.17;;;25.50;38.30;;;;;;5066205;28;20075;-51
2022/07/17 11:36:36;;;;;;;1.58;1.10;;;25.50;37.90;;;;;;5046185;28;20041;-49
2022/07/17 11:39:10;;;;;;;1.90;1.20;;;25.60;38.10;;;;;;5058224;28;20098;-51
2022/07/17 11:41:53;;;;;;;2.40;1.13;;;25.60;37.60;;;;;;5057043;28;20123;-52
2022/07/17 11:44:24;;;;;;;6.75;1.73;;;25.70;37.70;;;;;;5054497;28;20071;-52
2022/07/17 11:46:52;;;;;;;3.93;1.43;;;25.80;37.60;;;;;;5043177;28;20045;-52
2022/07/17 11:49:27;;;;;;;2.85;1.88;;;25.80;38.10;;;;;;5033457;28;20033;-49
2022/07/17 11:51:56;;;;;;;2.67;1.10;;;26.00;37.70;;;;;;5050095;28;20060;-50
2022/07/17 11:54:23;;;;;;;3.92;1.30;;;26.00;37.60;;;;;;5046330;28;20102;-48
2022/07/17 11:57:02;;;;;;;4.53;1.10;;;26.20;36.90;;;;;;5055348;28;20064;-50
2022/07/17 11:59:31;;;;;;;2.53;0.88;;;26.30;37.20;;;;;;5043430;28;20049;-52
2022/07/17 12:02:21;;;;;;;4.97;1.67;;;26.40;37.50;;;;;;5049176;28;20048;-51
2022/07/17 12:04:53;;;;;;;3.88;1.05;;;26.50;36.60;;;;;;5048466;28;20051;-51
2022/07/17 12:07:23;;;;;;;2.63;1.23;;;26.60;36.00;;;;;;5047799;28;20049;-52
2022/07/17 12:09:52;;;;;;;3.53;1.33;;;26.70;36.00;;;;;;5050712;28;20119;-48
2022/07/17 12:12:25;;;;;;;4.00;1.25;;;26.80;35.80;;;;;;5056848;28;20041;-50
2022/07/17 12:14:53;;;;;;;2.85;1.40;;;26.90;35.80;;;;;;5049355;28;20036;-52
2022/07/17 12:17:20;;;;;;;2.00;1.05;;;26.90;36.00;;;;;;5044147;28;20131;-49
2022/07/17 12:19:51;;;;;;;2.53;1.23;;;27.00;35.50;;;;;;5055077;28;20045;-52
2022/07/17 12:22:18;;;;;;;3.28;1.10;;;27.10;35.50;;;;;;5055711;28;20056;-49
2022/07/17 12:24:48;;;;;;;1.80;0.80;;;27.20;35.40;;;;;;5060885;28;20098;-50
2022/07/17 12:27:19;;;;;;;2.70;1.40;;;27.30;36.00;;;;;;5051902;28;20032;-51
2022/07/17 12:29:49;;;;;;;3.72;1.58;;;27.40;35.50;;;;;;5057563;28;20040;-49
2022/07/17 12:32:20;;;;;;;4.22;1.20;;;27.50;35.40;;;;;;5045213;28;20092;-51
2022/07/17 12:34:48;;;;;;;2.03;1.10;;;27.70;35.00;;;;;;5059106;28;20086;-50
2022/07/17 12:37:18;;;;;;;4.75;1.85;;;27.80;35.10;;;;;;5061456;28;20476;-50
2022/07/17 12:39:49;;;;;;;1.40;1.30;;;27.90;35.10;;;;;;5053612;28;20122;-48
2022/07/17 12:42:18;;;;;;;5.53;1.42;;;27.90;34.60;;;;;;5062832;28;20037;-50
2022/07/17 12:44:45;;;;;;;3.53;1.20;;;28.00;34.50;;;;;;5035671;28;20053;-49
2022/07/17 12:47:12;;;;;;;4.40;1.25;;;28.20;34.50;;;;;;5055266;28;20045;-48
2022/07/17 12:49:39;;;;;;;3.08;1.15;;;28.20;33.70;;;;;;5061625;28;20099;-50
2022/07/17 12:52:08;;;;;;;2.92;1.40;;;28.30;33.30;;;;;;5054390;28;20051;-48
2022/07/17 12:54:34;;;;;;;1.67;1.00;;;28.30;33.20;;;;;;5051326;28;20048;-48
2022/07/17 12:57:02;;;;;;;3.88;1.30;;;28.40;33.00;;;;;;5060721;28;20075;-48
2022/07/17 12:59:28;;;;;;;2.38;1.42;;;28.50;32.80;;;;;;5063605;28;20110;-51
2022/07/17 13:01:55;;;;;;;3.58;1.73;;;28.50;32.30;;;;;;5072887;28;20390;-52